LTAZ Airport Information

Runway Information
Runway 11 Length 9842 ft width 148 ft
Elevation 3080 ft Threshold 0 ft Heading 117
Runway 29 Length 9842 ft Width 148 ft
Elevation 3100 ft Threshold 0 ft Heading 297
Airport Frequencies
Type APP Name ESENBOGA A Frequency 119.1 MHZ
Type TWR Name TWR Frequency 35.892 MHZ
Type TWR Name TWR Frequency 119 MHZ
Airport Navaids
Type VOR-DME Name Tuzkoy Frequency 115300 KHZ
Type NDB Name Tuzkoy Frequency 371 KHZ
Airport Weather Information & NOTAM
ADDS - METARS form results

(2005 UTC 22 July 2018)
 
METAR text: LTAZ 221950Z 03007KT 330V090 CAVOK 27/09 Q1011 RMK RWY29 08009KT
Conditions at: LTAZ (NEVSEHIR , TR) observed 1950 UTC 22 July 2018
Temperature: 27.0°C (81°F)
Dewpoint: 9.0°C (48°F) [RH = 32%]
Pressure (altimeter): 29.85 inches Hg (1011.0 mb)
Winds: from the NNE (30 degrees) at 8 MPH (7 knots; 3.6 m/s)
Visibility: 6 or more miles (10+ km)
Ceiling: ceiling and visibility are OK
Clouds: unknown
Weather: no significant weather observed at this time

METAR text: LTAZ 221920Z 12009KT 090V150 9999 SCT040 27/08 Q1011 RMK RWY29 09009KT
Conditions at: LTAZ (NEVSEHIR , TR) observed 1920 UTC 22 July 2018
Temperature: 27.0°C (81°F)
Dewpoint: 8.0°C (46°F) [RH = 30%]
Pressure (altimeter): 29.85 inches Hg (1011.0 mb)
Winds: from the ESE (120 degrees) at 10 MPH (9 knots; 4.7 m/s)
Visibility: 6 or more miles (10+ km)
Ceiling: at least 12,000 feet AGL
Clouds: scattered clouds at 4000 feet AGL
Weather: no significant weather observed at this time